createdAt,value
2022-09-01T00:00:35.778Z,29.38
2022-09-01T00:03:07.825Z,29.36
2022-09-01T00:05:39.427Z,29.19
2022-09-01T00:08:11.432Z,29.50
2022-09-01T00:10:46.662Z,29.57
2022-09-01T00:13:19.981Z,29.64
2022-09-01T00:15:52.152Z,29.68
2022-09-01T00:18:24.343Z,29.69
2022-09-01T00:21:00.565Z,29.49
2022-09-01T00:23:32.562Z,29.78
2022-09-01T00:26:04.146Z,29.56
2022-09-01T00:28:37.830Z,29.83
2022-09-01T00:31:11.326Z,29.91
2022-09-01T00:33:43.978Z,29.68
2022-09-01T00:36:16.713Z,30.00
2022-09-01T00:38:50.215Z,29.96
2022-09-01T00:41:24.850Z,29.67
2022-09-01T00:44:06.933Z,30.03
2022-09-01T00:46:51.009Z,30.09
2022-09-01T00:49:41.156Z,29.78
2022-09-01T00:52:21.715Z,30.04
2022-09-01T00:54:59.704Z,29.99
2022-09-01T00:57:31.949Z,30.12
2022-09-01T01:00:18.813Z,30.00
2022-09-01T01:02:57.297Z,30.18
2022-09-01T01:05:35.611Z,30.17
2022-09-01T01:08:09.584Z,30.19
2022-09-01T01:10:44.362Z,29.30
2022-09-01T01:13:18.646Z,30.24
2022-09-01T01:15:50.806Z,30.20
2022-09-01T01:18:23.546Z,29.97
2022-09-01T01:21:27.010Z,29.74
2022-09-01T01:24:07.830Z,29.86
2022-09-01T01:26:41.070Z,30.01
2022-09-01T01:29:13.217Z,30.22
2022-09-01T01:31:45.697Z,30.23
2022-09-01T01:34:19.168Z,30.38
2022-09-01T01:36:52.283Z,30.40
2022-09-01T01:39:30.296Z,30.57
2022-09-01T01:42:03.386Z,30.59
2022-09-01T01:44:35.515Z,30.70
2022-09-01T01:47:14.507Z,30.68
2022-09-01T01:49:47.119Z,30.90
2022-09-01T01:52:22.146Z,30.96
2022-09-01T01:55:02.102Z,31.01
2022-09-01T01:57:37.032Z,30.87
2022-09-01T02:00:11.376Z,31.15
2022-09-01T02:02:43.896Z,31.20
2022-09-01T02:05:22.328Z,31.22
2022-09-01T02:08:01.289Z,30.89
2022-09-01T02:10:37.293Z,31.31
2022-09-01T02:13:10.323Z,31.35
2022-09-01T02:15:45.650Z,30.53
2022-09-01T02:18:25.314Z,31.43
2022-09-01T02:21:00.309Z,31.47
2022-09-01T02:23:33.049Z,31.45
2022-09-01T02:26:16.986Z,31.53
2022-09-01T02:28:55.335Z,31.51
2022-09-01T02:31:41.291Z,31.60
2022-09-01T02:34:15.490Z,31.64
2022-09-01T02:36:53.055Z,31.60
2022-09-01T02:39:34.893Z,31.32
2022-09-01T02:42:07.469Z,31.24
2022-09-01T02:44:41.423Z,31.28
2022-09-01T02:47:13.751Z,31.26
2022-09-01T02:49:46.416Z,31.19
2022-09-01T02:52:22.271Z,31.14
2022-09-01T02:54:55.401Z,31.04
2022-09-01T02:57:27.543Z,31.11
2022-09-01T03:00:00.455Z,31.09
2022-09-01T03:02:37.364Z,31.09
2022-09-01T03:05:09.845Z,31.08
2022-09-01T03:07:44.011Z,31.10
2022-09-01T03:10:17.850Z,31.09
2022-09-01T03:12:50.947Z,31.04
2022-09-01T03:15:24.676Z,31.12
2022-09-01T03:17:57.041Z,31.15
2022-09-01T03:20:32.423Z,30.67
2022-09-01T03:23:09.527Z,30.54
2022-09-01T03:25:44.590Z,30.84
2022-09-01T03:28:17.341Z,31.11
2022-09-01T03:30:53.077Z,31.23
2022-09-01T03:33:28.901Z,31.27
2022-09-01T03:36:02.746Z,31.29
2022-09-01T03:38:35.492Z,31.31
2022-09-01T03:41:10.842Z,31.32
2022-09-01T03:43:45.841Z,31.35
2022-09-01T03:46:23.035Z,31.36
2022-09-01T03:49:09.384Z,30.91
2022-09-01T03:51:45.160Z,31.39
2022-09-01T03:54:17.505Z,31.40
2022-09-01T03:56:50.576Z,31.40
2022-09-01T03:59:23.936Z,31.38
2022-09-01T04:01:56.480Z,31.44
2022-09-01T04:04:28.832Z,31.45
2022-09-01T04:07:01.763Z,31.45
2022-09-01T04:09:36.749Z,31.48
2022-09-01T04:12:10.427Z,31.36
2022-09-01T04:14:44.197Z,31.47
2022-09-01T04:17:36.411Z,31.46
2022-09-01T04:20:10.769Z,31.40
2022-09-01T04:22:43.362Z,31.52
2022-09-01T04:25:17.529Z,31.54
2022-09-01T04:27:49.619Z,31.53
2022-09-01T04:30:21.775Z,31.53
2022-09-01T04:32:58.345Z,31.53
2022-09-01T04:35:37.768Z,31.51
2022-09-01T04:38:10.419Z,31.44
2022-09-01T04:40:43.329Z,31.41
2022-09-01T04:43:18.223Z,31.48
2022-09-01T04:45:53.361Z,31.71
2022-09-01T04:48:25.736Z,31.79
2022-09-01T04:51:03.256Z,31.92
2022-09-01T04:53:39.629Z,31.96
2022-09-01T04:56:12.371Z,32.07
2022-09-01T04:58:49.612Z,32.13
2022-09-01T05:01:25.450Z,32.08
2022-09-01T05:04:04.099Z,32.22
2022-09-01T05:06:46.714Z,31.78
2022-09-01T05:09:21.829Z,32.13
2022-09-01T05:12:30.683Z,32.32
2022-09-01T05:15:07.759Z,32.36
2022-09-01T05:17:40.238Z,32.38
2022-09-01T05:20:13.822Z,32.35
2022-09-01T05:22:46.233Z,32.12
2022-09-01T05:25:18.482Z,32.05
2022-09-01T05:27:54.102Z,32.01
2022-09-01T05:30:29.995Z,31.94
2022-09-01T05:33:02.102Z,31.84
2022-09-01T05:36:03.436Z,31.77
2022-09-01T05:38:36.856Z,31.77
2022-09-01T05:41:16.375Z,31.82
2022-09-01T05:43:57.813Z,31.80
2022-09-01T05:46:32.510Z,31.77
2022-09-01T05:49:05.368Z,31.79
2022-09-01T05:51:45.943Z,31.71
2022-09-01T05:54:26.820Z,31.19
2022-09-01T05:57:23.232Z,31.57
2022-09-01T05:59:57.381Z,31.50
2022-09-01T06:02:32.424Z,31.46
2022-09-01T06:05:07.672Z,31.32
2022-09-01T06:07:42.449Z,31.35
2022-09-01T06:10:16.309Z,31.35
2022-09-01T06:12:49.529Z,31.24
2022-09-01T06:15:26.310Z,31.31
2022-09-01T06:18:00.221Z,31.28
2022-09-01T06:20:34.950Z,31.27
2022-09-01T06:23:06.994Z,31.24
2022-09-01T06:25:40.981Z,31.23
2022-09-01T06:28:17.975Z,31.21
2022-09-01T06:30:52.450Z,30.87
2022-09-01T06:33:26.497Z,31.16
2022-09-01T06:35:58.615Z,31.15
2022-09-01T06:38:31.132Z,31.08
2022-09-01T06:41:05.770Z,30.58
2022-09-01T06:43:38.350Z,31.07
2022-09-01T06:46:11.322Z,31.04
2022-09-01T06:48:47.735Z,31.03
2022-09-01T06:51:22.583Z,30.53
2022-09-01T06:54:00.615Z,31.03
2022-09-01T06:56:44.952Z,30.92
2022-09-01T06:59:34.850Z,31.04
2022-09-01T07:02:16.766Z,31.00
2022-09-01T07:08:14.875Z,31.03
2022-09-01T07:12:07.556Z,30.62
2022-09-01T07:14:17.686Z,31.05
2022-09-01T07:16:53.258Z,31.00
2022-09-01T07:19:49.487Z,31.07
2022-09-01T07:23:02.617Z,31.19
2022-09-01T07:25:14.002Z,30.92
2022-09-01T07:27:56.197Z,31.21
2022-09-01T07:30:35.211Z,31.27
2022-09-01T07:45:58.039Z,30.94
2022-09-01T07:49:02.554Z,31.78
2022-09-01T07:51:39.317Z,31.75
2022-09-01T07:54:15.183Z,32.15
2022-09-01T07:56:47.471Z,32.35
2022-09-01T07:59:19.761Z,32.44
2022-09-01T08:02:07.451Z,32.62
2022-09-01T08:04:41.595Z,32.73
2022-09-01T08:07:16.172Z,32.83
2022-09-01T08:09:49.156Z,32.91
2022-09-01T08:12:28.982Z,32.98
2022-09-01T08:15:41.527Z,32.53
2022-09-01T08:18:00.559Z,33.11
2022-09-01T08:20:54.191Z,33.19
2022-09-01T08:23:41.200Z,33.24
2022-09-01T08:26:19.024Z,32.81
2022-09-01T08:28:55.719Z,33.32
2022-09-01T08:31:43.060Z,33.34
2022-09-01T08:34:18.415Z,33.30
2022-09-01T08:36:50.897Z,33.42
2022-09-01T08:39:24.076Z,33.47
2022-09-01T08:42:46.752Z,33.34
2022-09-01T08:45:27.519Z,33.52
2022-09-01T08:51:28.139Z,33.18
2022-09-01T08:54:33.297Z,33.62
2022-09-01T08:57:08.410Z,33.33
2022-09-01T08:59:59.263Z,33.64
2022-09-01T09:03:18.737Z,33.68
2022-09-01T09:06:05.629Z,33.69
2022-09-01T09:09:01.060Z,33.65
2022-09-01T09:12:12.354Z,33.68
2022-09-01T09:15:05.405Z,33.76
2022-09-01T09:17:45.013Z,32.92
2022-09-01T09:20:18.161Z,33.53
2022-09-01T09:22:55.159Z,33.70
2022-09-01T09:25:27.459Z,33.79
2022-09-01T09:28:01.438Z,33.85
2022-09-01T09:30:34.515Z,33.85
2022-09-01T09:36:25.850Z,33.28
2022-09-01T09:39:10.747Z,33.38
2022-09-01T09:41:44.407Z,33.87
2022-09-01T09:44:28.717Z,33.80
2022-09-01T09:47:01.207Z,33.86
2022-09-01T09:49:42.249Z,33.33
2022-09-01T09:52:20.605Z,33.31
2022-09-01T09:55:26.289Z,33.42
2022-09-01T09:58:02.605Z,33.86
2022-09-01T10:00:36.251Z,33.39
2022-09-01T10:03:12.446Z,33.80
2022-09-01T10:05:49.724Z,33.48
2022-09-01T10:08:36.023Z,33.83
2022-09-01T10:11:08.608Z,33.86
2022-09-01T10:13:41.096Z,33.84
2022-09-01T10:16:32.067Z,33.43
2022-09-01T10:19:07.615Z,33.81
2022-09-01T10:21:46.974Z,33.37
2022-09-01T10:24:37.288Z,33.50
2022-09-01T10:27:21.655Z,33.32
2022-09-01T10:30:13.494Z,33.58
2022-09-01T10:32:55.389Z,33.36
2022-09-01T10:35:28.253Z,33.81
2022-09-01T10:38:06.103Z,33.79
2022-09-01T10:40:50.433Z,33.43
2022-09-01T10:43:29.367Z,33.78
2022-09-01T10:46:15.281Z,33.33
2022-09-01T10:48:56.013Z,33.35
2022-09-01T10:51:35.891Z,33.24
2022-09-01T10:54:11.895Z,33.18
2022-09-01T10:56:52.691Z,32.66
2022-09-01T10:59:37.450Z,33.05
2022-09-01T11:02:24.841Z,32.49
2022-09-01T11:05:01.619Z,32.97
2022-09-01T11:08:00.201Z,32.94
2022-09-01T11:10:34.786Z,32.92
2022-09-01T11:13:23.427Z,32.26
2022-09-01T11:16:00.305Z,32.76
2022-09-01T11:18:33.153Z,32.78
2022-09-01T11:21:30.605Z,32.42
2022-09-01T11:24:40.274Z,32.78
2022-09-01T11:27:15.120Z,32.85
2022-09-01T11:30:04.217Z,32.83
2022-09-01T11:32:41.646Z,32.78
2022-09-01T11:35:21.970Z,32.37
2022-09-01T11:37:58.890Z,32.83
2022-09-01T11:40:34.247Z,32.85
2022-09-01T11:43:16.587Z,32.76
2022-09-01T11:46:17.212Z,32.72
2022-09-01T11:48:51.834Z,32.40
2022-09-01T11:51:24.417Z,32.79
2022-09-01T11:54:02.078Z,31.94
2022-09-01T11:56:34.270Z,32.73
2022-09-01T11:59:06.893Z,32.68
2022-09-01T12:01:59.339Z,32.71
2022-09-01T12:04:42.127Z,32.64
2022-09-01T12:07:26.943Z,32.68
2022-09-01T12:09:59.234Z,32.58
2022-09-01T12:12:37.767Z,32.69
2022-09-01T12:15:26.368Z,32.74
2022-09-01T12:18:14.959Z,32.24
2022-09-01T12:23:33.995Z,32.77
2022-09-01T12:26:16.344Z,32.32
2022-09-01T12:28:51.379Z,32.41
2022-09-01T12:31:28.868Z,32.79
2022-09-01T12:34:02.668Z,32.74
2022-09-01T12:36:40.074Z,32.62
2022-09-01T12:39:25.496Z,32.39
2022-09-01T12:42:06.774Z,32.22
2022-09-01T12:44:41.558Z,32.22
2022-09-01T12:47:38.047Z,31.67
2022-09-01T12:50:17.045Z,31.96
2022-09-01T12:52:59.687Z,31.80
2022-09-01T12:55:49.772Z,31.33
2022-09-01T12:58:27.583Z,31.28
2022-09-01T13:01:05.545Z,31.70
2022-09-01T13:03:38.328Z,31.54
2022-09-01T13:06:10.481Z,31.36
2022-09-01T13:08:42.591Z,31.52
2022-09-01T13:11:23.229Z,30.85
2022-09-01T13:13:55.732Z,31.35
2022-09-01T13:16:27.858Z,31.28
2022-09-01T13:19:21.814Z,31.23
2022-09-01T13:21:52.306Z,31.03
2022-09-01T13:24:28.734Z,31.08
2022-09-01T13:29:55.944Z,30.65
2022-09-01T13:32:28.569Z,30.59
2022-09-01T13:35:00.980Z,30.76
2022-09-01T13:37:34.220Z,30.86
2022-09-01T13:40:10.292Z,30.46
2022-09-01T13:42:42.721Z,30.82
2022-09-01T13:45:16.503Z,30.79
2022-09-01T13:53:43.185Z,30.66
2022-09-01T13:56:15.299Z,30.50
2022-09-01T13:58:49.820Z,30.23
2022-09-01T14:01:22.029Z,30.55
2022-09-01T14:03:57.161Z,30.57
2022-09-01T14:06:32.308Z,30.75
2022-09-01T14:09:04.369Z,30.71
2022-09-01T14:11:36.533Z,30.56
2022-09-01T14:14:08.946Z,30.56
2022-09-01T14:16:41.084Z,30.85
2022-09-01T14:19:14.849Z,30.89
2022-09-01T14:21:48.619Z,30.88
2022-09-01T14:24:21.439Z,30.82
2022-09-01T14:26:53.489Z,30.56
2022-09-01T14:29:25.071Z,30.62
2022-09-01T14:31:58.615Z,30.89
2022-09-01T14:34:32.330Z,30.62
2022-09-01T14:37:05.560Z,30.87
2022-09-01T14:39:37.655Z,30.49
2022-09-01T14:42:13.208Z,30.59
2022-09-01T14:44:45.640Z,30.82
2022-09-01T14:47:19.761Z,30.56
2022-09-01T14:49:54.826Z,30.73
2022-09-01T14:52:27.070Z,30.86
2022-09-01T14:54:59.505Z,30.55
2022-09-01T14:57:37.080Z,30.50
2022-09-01T15:00:13.826Z,30.85
2022-09-01T15:02:46.795Z,30.84
2022-09-01T15:05:19.583Z,30.80
2022-09-01T15:07:52.285Z,30.80
2022-09-01T15:10:31.164Z,30.78
2022-09-01T15:13:03.437Z,30.79
2022-09-01T15:15:36.303Z,30.65
2022-09-01T15:18:08.912Z,30.71
2022-09-01T15:20:50.071Z,30.68
2022-09-01T15:23:25.334Z,30.14
2022-09-01T15:25:59.313Z,30.61
2022-09-01T15:28:31.437Z,30.37
2022-09-01T15:31:03.673Z,30.36
2022-09-01T15:33:36.019Z,30.32
2022-09-01T15:36:15.504Z,30.28
2022-09-01T15:38:48.392Z,30.36
2022-09-01T15:41:24.361Z,30.44
2022-09-01T15:43:58.029Z,30.43
2022-09-01T15:46:34.064Z,30.47
2022-09-01T15:49:09.582Z,30.50
2022-09-01T15:51:44.267Z,30.49
2022-09-01T15:54:25.038Z,30.44
2022-09-01T15:56:59.601Z,30.47
2022-09-01T15:59:31.767Z,30.40
2022-09-01T16:02:03.906Z,30.45
2022-09-01T16:04:36.085Z,30.39
2022-09-01T16:07:07.640Z,30.11
2022-09-01T16:09:39.887Z,30.36
2022-09-01T16:12:12.132Z,30.42
2022-09-01T16:14:44.257Z,30.38
2022-09-01T16:17:53.300Z,29.46
2022-09-01T16:20:29.259Z,29.85
2022-09-01T16:23:26.052Z,30.24
2022-09-01T16:26:02.066Z,29.80
2022-09-01T16:28:37.544Z,30.21
2022-09-01T16:31:15.483Z,29.43
2022-09-01T16:33:52.747Z,30.23
2022-09-01T16:36:49.481Z,30.21
2022-09-01T16:39:52.515Z,30.24
2022-09-01T16:42:27.605Z,30.25
2022-09-01T16:45:27.496Z,30.23
2022-09-01T16:48:17.735Z,30.23
2022-09-01T16:51:05.938Z,29.99
2022-09-01T16:54:00.587Z,29.76
2022-09-01T16:57:16.629Z,30.08
2022-09-01T17:00:03.249Z,30.11
2022-09-01T17:02:46.904Z,30.18
2022-09-01T17:05:39.760Z,29.60
2022-09-01T17:08:23.469Z,30.15
2022-09-01T17:11:23.429Z,30.03
2022-09-01T17:13:57.271Z,30.02
2022-09-01T17:16:46.455Z,30.06
2022-09-01T17:19:22.439Z,30.12
2022-09-01T17:22:14.012Z,30.02
2022-09-01T17:24:51.097Z,29.60
2022-09-01T17:27:38.459Z,29.75
2022-09-01T17:30:11.276Z,30.13
2022-09-01T17:33:18.709Z,29.62
2022-09-01T17:36:02.191Z,29.99
2022-09-01T17:39:02.430Z,30.01
2022-09-01T17:41:40.190Z,30.02
2022-09-01T17:44:37.011Z,29.92
2022-09-01T17:47:21.820Z,30.01
2022-09-01T17:50:22.943Z,29.84
2022-09-01T17:53:00.551Z,30.00
2022-09-01T17:55:58.368Z,29.89
2022-09-01T17:58:47.052Z,29.43
2022-09-01T18:01:37.229Z,29.97
2022-09-01T18:04:53.973Z,29.81
2022-09-01T18:07:46.274Z,29.32
2022-09-01T18:10:31.073Z,29.86
2022-09-01T18:13:07.315Z,29.51
2022-09-01T18:15:53.097Z,29.39
2022-09-01T18:18:34.606Z,29.91
2022-09-01T18:21:13.453Z,29.90
2022-09-01T18:23:48.255Z,29.78
2022-09-01T18:26:33.887Z,29.29
2022-09-01T18:29:07.679Z,29.81
2022-09-01T18:31:54.834Z,29.75
2022-09-01T18:34:37.839Z,29.84
2022-09-01T18:37:33.365Z,29.22
2022-09-01T18:40:21.005Z,29.73
2022-09-01T18:43:17.901Z,29.26
2022-09-01T18:45:56.422Z,29.60
2022-09-01T18:48:53.962Z,29.76
2022-09-01T18:51:33.244Z,29.75
2022-09-01T18:54:24.087Z,29.45
2022-09-01T18:57:02.601Z,29.74
2022-09-01T19:00:17.981Z,29.64
2022-09-01T19:03:14.953Z,29.64
2022-09-01T19:06:20.911Z,29.64
2022-09-01T19:09:24.627Z,29.74
2022-09-01T19:12:08.461Z,29.69
2022-09-01T19:15:08.660Z,29.60
2022-09-01T19:18:21.479Z,29.64
2022-09-01T19:21:10.709Z,29.31
2022-09-01T19:24:00.711Z,29.62
2022-09-01T19:26:50.656Z,29.48
2022-09-01T19:29:43.176Z,29.40
2022-09-01T19:32:20.128Z,29.38
2022-09-01T19:34:58.591Z,29.44
2022-09-01T19:37:31.261Z,29.62
2022-09-01T19:40:04.359Z,29.60
2022-09-01T19:42:36.453Z,29.58
2022-09-01T19:45:42.520Z,29.32
2022-09-01T19:48:23.731Z,29.54
2022-09-01T19:51:18.997Z,29.31
2022-09-01T19:54:10.700Z,29.54
2022-09-01T19:56:50.749Z,29.53
2022-09-01T20:00:04.184Z,28.88
2022-09-01T20:03:07.037Z,29.39
2022-09-01T20:05:50.399Z,29.38
2022-09-01T20:08:22.482Z,29.54
2022-09-01T20:11:06.881Z,28.90
2022-09-01T20:13:55.150Z,29.49
2022-09-01T20:16:50.030Z,28.94
2022-09-01T20:19:30.292Z,29.46
2022-09-01T20:22:11.259Z,28.99
2022-09-01T20:24:43.484Z,29.44
2022-09-01T20:27:42.507Z,29.42
2022-09-01T20:30:21.754Z,29.06
2022-09-01T20:33:11.602Z,29.41
2022-09-01T20:35:52.521Z,29.26
2022-09-01T20:38:59.204Z,28.93
2022-09-01T20:41:45.983Z,29.39
2022-09-01T20:44:46.498Z,29.37
2022-09-01T20:47:19.052Z,29.36
2022-09-01T20:49:51.285Z,29.38
2022-09-01T20:52:25.632Z,29.04
2022-09-01T20:55:00.397Z,29.32
2022-09-01T20:57:56.453Z,29.33
2022-09-01T21:00:31.483Z,28.73
2022-09-01T21:03:35.926Z,29.27
2022-09-01T21:06:21.710Z,29.24
2022-09-01T21:09:06.405Z,29.19
2022-09-01T21:12:18.545Z,28.61
2022-09-01T21:15:05.440Z,29.20
2022-09-01T21:17:43.945Z,29.21
2022-09-01T21:20:43.197Z,29.12
2022-09-01T21:23:17.727Z,29.17
2022-09-01T21:25:51.318Z,29.18
2022-09-01T21:28:27.762Z,29.06
2022-09-01T21:31:01.423Z,29.04
2022-09-01T21:33:34.802Z,29.16
2022-09-01T21:36:07.095Z,29.13
2022-09-01T21:38:39.359Z,29.14
2022-09-01T21:41:13.176Z,28.79
2022-09-01T21:43:47.560Z,28.98
2022-09-01T21:46:21.770Z,29.13
2022-09-01T21:48:53.959Z,29.07
2022-09-01T21:51:25.606Z,28.78
2022-09-01T21:53:57.860Z,29.03
2022-09-01T21:56:29.516Z,28.78
2022-09-01T21:59:01.582Z,29.03
2022-09-01T22:01:36.375Z,28.78
2022-09-01T22:04:08.937Z,29.00
2022-09-01T22:06:41.861Z,28.51
2022-09-01T22:09:21.080Z,29.05
2022-09-01T22:11:54.189Z,29.04
2022-09-01T22:14:29.208Z,29.05
2022-09-01T22:17:04.354Z,29.01
2022-09-01T22:19:37.865Z,29.02
2022-09-01T22:22:10.111Z,29.00
2022-09-01T22:24:42.296Z,28.99
2022-09-01T22:27:13.947Z,28.68
2022-09-01T22:29:46.775Z,28.90
2022-09-01T22:32:18.884Z,28.95
2022-09-01T22:34:50.713Z,28.64
2022-09-01T22:37:22.786Z,28.90
2022-09-01T22:39:54.401Z,28.62
2022-09-01T22:42:26.904Z,28.87
2022-09-01T22:44:58.968Z,28.89
2022-09-01T22:47:31.043Z,28.87
2022-09-01T22:50:09.419Z,28.92
2022-09-01T22:52:41.833Z,28.88
2022-09-01T22:55:15.040Z,28.78
2022-09-01T22:57:47.187Z,28.91
2022-09-01T23:00:19.582Z,28.60
2022-09-01T23:02:51.816Z,28.78
2022-09-01T23:05:25.156Z,28.88
2022-09-01T23:07:58.567Z,28.86
2022-09-01T23:10:30.749Z,28.87
2022-09-01T23:13:03.143Z,28.90
2022-09-01T23:15:35.990Z,29.13
2022-09-01T23:18:08.189Z,29.18
2022-09-01T23:20:39.881Z,28.96
2022-09-01T23:23:11.864Z,29.24
2022-09-01T23:25:45.460Z,29.05
2022-09-01T23:28:19.413Z,29.35
2022-09-01T23:30:52.686Z,29.45
2022-09-01T23:33:26.549Z,29.24
2022-09-01T23:35:59.158Z,29.55
2022-09-01T23:38:31.337Z,29.59
2022-09-01T23:41:11.281Z,29.25
2022-09-01T23:43:43.690Z,29.53
2022-09-01T23:46:31.203Z,29.68
2022-09-01T23:49:05.112Z,29.79
2022-09-01T23:51:37.556Z,29.83
2022-09-01T23:54:09.948Z,29.76
2022-09-01T23:56:42.762Z,29.94
2022-09-01T23:59:15.218Z,29.99
